Belgrade, MO

7:40 AM CDT on July 28, 2014 (GMT -0500)
Rolla National (KVIH) Elev 1145 ft | 38.13 °N, 91.77 °W | Change Station

Current weather conditions updated 47 minutes ago

Clear
Clear
61 °F
Feels Like 61 °F
N
8
Wind Variable Wind from WNW

Today is forecast to be Much Cooler than yesterday.

Today
High -- | Low -- °F
--% Chance of Precip.
Yesterday
High -- | Low -- °F
Precip. -- in
6:03 AM 8:15 PM
New Moon, 2% visible
Pressure 30.07 in
Visibility 10.0 miles
Clouds Clear
Dew Point 56 °F
Humidity 83%
Rainfall 0.00 in
Snow Depth Not available.
UV 0 out of 12
Pollen 7.10 out of 12
Air Quality Not available.
Flu Activity Not available.
METAR KVIH 281153Z AUTO 30007KT 10SM CLR 16/13 A3010 RMK AO2 SLP183 T01610133 10200 20156 51012

More Conditions Fewer Conditions

Pressure 30.07 in
Visibility 10.0 miles
Clouds Clear
Dew Point 56 °F
Humidity 83%
Rainfall 0.00 in
Snow Depth Not available.
UV 0 out of 12
Pollen 7.10 out of 12
Air Quality Not available.
Flu Activity Not available.
METAR KVIH 281153Z AUTO 30007KT 10SM CLR 16/13 A3010 RMK AO2 SLP183 T01610133 10200 20156 51012

More Conditions Fewer Conditions

10-Day Weather Forecast

Almanac

Astronomy

Jul. 28, 2014 Rise Set
Actual Time 6:03 AM CDT 8:15 PM CDT
Civil Twilight 5:34 AM CDT 8:45 PM CDT
Nautical Twilight 4:57 AM CDT 9:21 PM CDT
Astronomical Twilight 4:18 AM CDT 10:00 PM CDT
Moon 7:42 AM CDT 9:00 PM CDT
Length of Visible Light 15h 10m
Length of Day
14h 12m
Tomorrow will be 1m 44s shorter.
New Moon, 2% of the Moon is Illuminated
Today
New Moon
Aug 3
First Quarter
Aug 10
Full
Aug 17
Last Quarter
Aug 25
New

Today's Extremes

State Highs State Lows

Community

WunderPhotos

Upload Photos

1,738,317 photos uploaded!

Nearby

Snow Depth

Station Depth Elevation
No new snow has been reported.

Earthquake Activity

City Distance Mag. Time & Date
No recent earthquake activity has been reported nearby.
Minimum magnitude displayed is 2.5.

Coastal Water Temperatures

Place Temperature
No Stations Reporting

Nearby Weather Stations

Station Location Temp. Heat Index Dew Point Humidity Wind Precip. Elev Updated Type
RAWS COUNCIL BLUFF MO, 61 °F - 56 °F 85% NW  at  3 mph 0.00 in / hr 1321 ft 7:54 AM EDT MADIS
MesoWest MNERPT , Mineral Point, MO 64 °F - - - North  at  - 0.00 in / hr 958 ft 6:05 AM CDT MADIS
Bismarck, MO 65.6 °F - 60 °F 81% WNW  at  0.0 mph 0.00 in / hr 1000 ft 7:35 AM CDT Normal
Breton Creek, Potosi, MO 67.1 °F - 60 °F 78% WSW  at  3.7 mph - / hr 856 ft 7:33 AM CDT Normal
TurtleCreekFarm, Bismarck, MO 61.2 °F - 60 °F 94% SE  at  0.0 mph 0.00 in / hr 1040 ft 7:36 AM CDT Normal
Park Hills, Park Hills, MO 73.6 °F 76 °F 63 °F 70% North  at  0.0 mph 0.00 in / hr 823 ft 7:40 AM CDT Rapid Fire
MesoWest GLOVRS , 57 °F - - - North  at  - 0.00 in / hr 836 ft 7:30 AM EDT MADIS
RAWS FARMINGTON MO, 63 °F - 57 °F 80% WNW  at  5 mph 0.00 in / hr 945 ft 8:00 AM EDT MADIS

Show More Stations Show Fewer Stations